Time;durP1;ratioP1;P1;durP2;ratioP2;P2;SDS_P1;SDS_P2;PMS_P1;PMS_P2;Temp;Humidity;BMP_temperature;BMP_pressure;BME280_temperature;BME280_humidity;BME280_pressure;Samples;Min_cycle;Max_cycle;Signal;HPM_P1;HPM_P2
2022/06/03 00:02:22;;;;;;;0.00;0.00;;;19.30;91.00;;;;;;4922771;29;20023;-72
2022/06/03 00:05:11;;;;;;;0.00;0.00;;;19.20;90.80;;;;;;4935537;28;20043;-72
2022/06/03 00:07:52;;;;;;;0.00;0.00;;;19.20;90.80;;;;;;4920595;29;20032;-72
2022/06/03 00:10:18;;;;;;;0.00;0.00;;;19.20;91.10;;;;;;4924004;28;20027;-76
2022/06/03 00:13:08;;;;;;;0.00;0.00;;;19.20;90.50;;;;;;4937358;28;20811;-72
2022/06/03 00:15:51;;;;;;;0.00;0.00;;;19.10;90.50;;;;;;4921024;28;20042;-72
2022/06/03 00:18:54;;;;;;;0.00;0.00;;;19.10;90.40;;;;;;4939826;28;20023;-72
2022/06/03 00:21:32;;;;;;;0.00;0.00;;;19.10;89.90;;;;;;4934806;28;20031;-72
2022/06/03 00:24:26;;;;;;;0.00;0.00;;;19.10;90.50;;;;;;4924260;28;20489;-75
2022/06/03 00:27:18;;;;;;;0.00;0.00;;;19.10;90.20;;;;;;4940451;28;20042;-71
2022/06/03 00:30:01;;;;;;;0.00;0.00;;;19.00;89.40;;;;;;4917456;28;20036;-71
2022/06/03 00:32:32;;;;;;;0.00;0.00;;;19.00;89.20;;;;;;4936475;28;20042;-72
2022/06/03 00:35:26;;;;;;;0.00;0.00;;;18.90;89.30;;;;;;4922357;28;20032;-73
2022/06/03 00:38:16;;;;;;;0.00;0.00;;;18.90;90.00;;;;;;4920123;28;20209;-74
2022/06/03 00:41:06;;;;;;;0.00;0.00;;;18.90;89.40;;;;;;4940880;28;20031;-71
2022/06/03 00:43:46;;;;;;;0.00;0.00;;;18.90;89.90;;;;;;4935709;28;20298;-71
2022/06/03 00:46:21;;;;;;;0.00;0.00;;;18.80;90.00;;;;;;4944557;28;20098;-71
2022/06/03 00:48:52;;;;;;;0.00;0.00;;;18.80;90.00;;;;;;4924878;28;20020;-72
2022/06/03 00:51:27;;;;;;;0.00;0.00;;;18.80;89.70;;;;;;4928624;28;20024;-71
2022/06/03 00:53:58;;;;;;;0.00;0.00;;;18.80;90.20;;;;;;4944038;28;20028;-75
2022/06/03 00:56:29;;;;;;;0.00;0.00;;;18.80;90.40;;;;;;4947052;28;20031;-72
2022/06/03 00:59:18;;;;;;;0.00;0.00;;;18.80;90.20;;;;;;4943010;28;20039;-72
2022/06/03 01:01:53;;;;;;;0.00;0.00;;;18.70;89.90;;;;;;4943906;28;20024;-71
2022/06/03 01:04:56;;;;;;;0.00;0.00;;;18.70;89.60;;;;;;4922816;28;20055;-75
2022/06/03 01:07:54;;;;;;;0.00;0.00;;;18.70;90.00;;;;;;4916165;28;20065;-71
2022/06/03 01:10:42;;;;;;;0.00;0.00;;;18.70;89.70;;;;;;4904273;28;20060;-72
2022/06/03 01:13:24;;;;;;;0.00;0.00;;;18.60;90.30;;;;;;4943414;28;20107;-74
2022/06/03 01:16:14;;;;;;;0.00;0.00;;;18.60;90.00;;;;;;4923718;28;20207;-74
2022/06/03 01:19:25;;;;;;;0.00;0.00;;;18.60;90.20;;;;;;4938085;28;20279;-72
2022/06/03 01:22:15;;;;;;;0.00;0.00;;;18.60;89.80;;;;;;4903820;28;20263;-72
2022/06/03 01:25:16;;;;;;;0.00;0.00;;;18.50;89.70;;;;;;4942206;28;20030;-77
2022/06/03 01:28:19;;;;;;;0.00;0.00;;;18.50;89.80;;;;;;4937070;29;20019;-74
2022/06/03 01:31:22;;;;;;;0.00;0.00;;;18.50;89.40;;;;;;4922840;28;20031;-74
2022/06/03 01:34:32;;;;;;;0.00;0.00;;;18.50;90.30;;;;;;4944425;28;20031;-77
2022/06/03 01:37:27;;;;;;;0.00;0.00;;;18.50;90.60;;;;;;4935931;28;20043;-78
2022/06/03 01:40:20;;;;;;;0.00;0.00;;;18.50;90.30;;;;;;4943795;28;20126;-73
2022/06/03 01:43:33;;;;;;;0.00;0.00;;;18.40;90.80;;;;;;4943558;28;20043;-72
2022/06/03 01:46:01;;;;;;;0.00;0.00;;;18.40;90.30;;;;;;4940048;28;20361;-77
2022/06/03 01:48:35;;;;;;;;;;;18.30;89.80;;;;;;4941495;28;20286;-76
2022/06/03 01:51:35;;;;;;;0.00;0.00;;;18.30;90.00;;;;;;4939785;28;19929;-72
2022/06/03 01:54:38;;;;;;;0.00;0.00;;;18.30;90.00;;;;;;4923396;28;20051;-72
2022/06/03 01:57:25;;;;;;;0.00;0.00;;;18.30;89.80;;;;;;4938769;28;20035;-72
2022/06/03 02:00:26;;;;;;;0.00;0.00;;;18.20;89.50;;;;;;4937484;28;20024;-72
2022/06/03 02:03:20;;;;;;;0.00;0.00;;;18.20;90.10;;;;;;4929649;28;20374;-71
2022/06/03 02:06:13;;;;;;;0.00;0.00;;;18.30;91.60;;;;;;4922433;29;20102;-76
2022/06/03 02:08:47;;;;;;;0.00;0.00;;;18.20;91.50;;;;;;4904812;29;20020;-78
2022/06/03 02:11:31;;;;;;;0.00;0.00;;;18.20;90.70;;;;;;4922652;29;20028;-76
2022/06/03 02:14:28;;;;;;;0.00;0.00;;;18.20;90.50;;;;;;4917294;29;20065;-71
2022/06/03 02:17:30;;;;;;;0.00;0.00;;;18.20;90.20;;;;;;4919345;29;20043;-71
2022/06/03 02:20:14;;;;;;;0.00;0.00;;;18.20;91.10;;;;;;4920196;29;20084;-71
2022/06/03 02:23:00;;;;;;;0.00;0.00;;;18.20;91.70;;;;;;4921152;29;20056;-75
2022/06/03 02:25:53;;;;;;;0.00;0.00;;;18.10;92.00;;;;;;4916899;29;20052;-72
2022/06/03 02:28:27;;;;;;;0.00;0.00;;;18.10;92.40;;;;;;4906771;29;20131;-77
2022/06/03 02:30:56;;;;;;;0.00;0.00;;;18.10;92.10;;;;;;4923244;29;20024;-71
2022/06/03 02:34:04;;;;;;;0.00;0.00;;;18.00;91.90;;;;;;4906753;29;20063;-71
2022/06/03 02:36:38;;;;;;;;;;;18.00;91.10;;;;;;4905394;29;20044;-73
2022/06/03 02:39:19;;;;;;;0.00;0.00;;;17.90;90.70;;;;;;4920572;29;19993;-71
2022/06/03 02:41:52;;;;;;;0.00;0.00;;;17.90;90.70;;;;;;4919738;29;20020;-71
2022/06/03 02:44:55;;;;;;;0.00;0.00;;;17.90;90.10;;;;;;4924121;29;20099;-72
2022/06/03 02:47:38;;;;;;;0.00;0.00;;;17.90;89.60;;;;;;4916920;29;20035;-71
2022/06/03 02:50:09;;;;;;;0.00;0.00;;;17.80;90.30;;;;;;4924028;29;20036;-70
2022/06/03 02:53:12;;;;;;;0.00;0.00;;;17.80;89.80;;;;;;4906369;29;20036;-71
2022/06/03 02:55:40;;;;;;;0.00;0.00;;;17.80;89.80;;;;;;4917396;29;20342;-71
2022/06/03 02:58:31;;;;;;;0.00;0.00;;;17.80;90.60;;;;;;4918345;29;20349;-71
2022/06/03 03:01:13;;;;;;;0.00;0.00;;;17.90;91.40;;;;;;4905535;29;20027;-71
2022/06/03 03:03:55;;;;;;;0.00;0.00;;;17.90;91.90;;;;;;4908182;29;20054;-76
2022/06/03 03:06:27;;;;;;;0.00;0.00;;;17.90;92.10;;;;;;4918214;29;20027;-71
2022/06/03 03:09:15;;;;;;;0.00;0.00;;;17.90;91.60;;;;;;4904071;29;20030;-71
2022/06/03 03:12:09;;;;;;;0.00;0.00;;;17.90;91.90;;;;;;4906439;29;20509;-71
2022/06/03 03:14:50;;;;;;;0.00;0.00;;;17.80;92.00;;;;;;4908567;29;20052;-71
2022/06/03 03:17:33;;;;;;;0.00;0.00;;;17.80;91.90;;;;;;4928403;29;20103;-71
2022/06/03 03:20:28;;;;;;;0.00;0.00;;;17.80;91.80;;;;;;4903497;29;20028;-77
2022/06/03 03:23:15;;;;;;;0.00;0.00;;;17.80;91.30;;;;;;4905267;29;20020;-72
2022/06/03 03:26:16;;;;;;;0.00;0.00;;;17.80;91.30;;;;;;4920730;29;20024;-71
2022/06/03 03:29:24;;;;;;;0.00;0.00;;;17.80;91.30;;;;;;4892788;29;20028;-74
2022/06/03 03:32:27;;;;;;;0.00;0.00;;;17.80;90.90;;;;;;4921875;29;20329;-72
2022/06/03 03:35:07;;;;;;;0.00;0.00;;;17.80;91.10;;;;;;4916926;29;20047;-71
2022/06/03 03:37:45;;;;;;;0.00;0.00;;;17.80;91.50;;;;;;4909379;29;20036;-72
2022/06/03 03:40:58;;;;;;;0.00;0.00;;;17.80;91.30;;;;;;4927315;29;20308;-72
2022/06/03 03:43:42;;;;;;;0.00;0.00;;;17.80;91.40;;;;;;4844651;29;20079;-72
2022/06/03 03:46:32;;;;;;;0.00;0.00;;;17.80;91.30;;;;;;4845287;29;20029;-74
2022/06/03 03:49:31;;;;;;;0.00;0.00;;;17.80;91.60;;;;;;4892178;29;20086;-72
2022/06/03 03:52:22;;;;;;;0.00;0.00;;;17.70;91.50;;;;;;4920370;29;20035;-71
2022/06/03 03:55:22;;;;;;;0.00;0.00;;;17.70;91.10;;;;;;4924338;29;20100;-74
2022/06/03 03:58:19;;;;;;;0.00;0.00;;;17.60;90.90;;;;;;4905142;29;20484;-77
2022/06/03 04:01:33;;;;;;;0.00;0.00;;;17.70;91.10;;;;;;4907996;29;20038;-71
2022/06/03 04:04:17;;;;;;;0.00;0.00;;;17.70;91.40;;;;;;4920915;29;20052;-76
2022/06/03 04:07:07;;;;;;;0.00;0.00;;;17.70;91.30;;;;;;4916754;29;20072;-71
2022/06/03 04:09:53;;;;;;;0.00;0.00;;;17.70;91.40;;;;;;4916029;29;20062;-71
2022/06/03 04:12:57;;;;;;;0.00;0.00;;;17.70;91.80;;;;;;4909700;29;20429;-78
2022/06/03 04:15:40;;;;;;;0.00;0.00;;;17.60;91.40;;;;;;4915253;29;20099;-71
2022/06/03 04:18:47;;;;;;;0.00;0.00;;;17.70;91.60;;;;;;4919740;28;20132;-71
2022/06/03 04:21:21;;;;;;;0.00;0.00;;;17.70;92.60;;;;;;4919987;29;20111;-71
2022/06/03 04:24:17;;;;;;;0.00;0.00;;;17.70;92.50;;;;;;4922538;29;20028;-72
2022/06/03 04:27:02;;;;;;;0.00;0.00;;;17.70;92.30;;;;;;4923459;29;20027;-71
2022/06/03 04:29:57;;;;;;;0.00;0.00;;;17.70;92.40;;;;;;4928518;29;20079;-72
2022/06/03 04:32:57;;;;;;;0.00;0.00;;;17.60;92.20;;;;;;4900425;29;20031;-73
2022/06/03 04:36:05;;;;;;;0.00;0.00;;;17.60;92.30;;;;;;4901199;29;20031;-71
2022/06/03 04:38:49;;;;;;;;;;;17.70;92.40;;;;;;4888186;29;20295;-71
2022/06/03 04:41:44;;;;;;;0.00;0.00;;;17.70;92.70;;;;;;4904799;29;19918;-76
2022/06/03 04:44:38;;;;;;;0.00;0.00;;;17.70;92.30;;;;;;4920288;29;20050;-72
2022/06/03 04:47:41;;;;;;;0.00;0.00;;;17.70;92.50;;;;;;4920642;29;20020;-71
2022/06/03 04:50:27;;;;;;;0.00;0.00;;;17.80;92.80;;;;;;4923280;29;20083;-71
2022/06/03 04:53:30;;;;;;;0.00;0.00;;;17.80;92.90;;;;;;4915012;29;20028;-75
2022/06/03 04:56:20;;;;;;;0.00;0.00;;;17.80;92.80;;;;;;4905068;29;20043;-72
2022/06/03 04:59:05;;;;;;;0.00;0.00;;;17.80;92.70;;;;;;4894443;29;20132;-71
2022/06/03 05:01:52;;;;;;;0.00;0.00;;;17.90;92.80;;;;;;4920794;29;20064;-71
2022/06/03 05:04:30;;;;;;;0.00;0.00;;;17.90;93.00;;;;;;4923239;29;20056;-76
2022/06/03 05:07:01;;;;;;;0.00;0.00;;;17.90;92.90;;;;;;4921746;29;20028;-71
2022/06/03 05:10:01;;;;;;;0.00;0.00;;;17.90;93.00;;;;;;4917084;29;20059;-74
2022/06/03 05:12:48;;;;;;;0.00;0.00;;;18.00;93.20;;;;;;4904875;29;20036;-71
2022/06/03 05:15:16;;;;;;;0.00;0.00;;;18.00;93.20;;;;;;4925678;29;20051;-75
2022/06/03 05:18:00;;;;;;;0.00;0.00;;;18.00;93.30;;;;;;4904482;29;20035;-74
2022/06/03 05:20:35;;;;;;;0.00;0.00;;;18.10;93.40;;;;;;4921694;29;20300;-72
2022/06/03 05:23:29;;;;;;;0.00;0.00;;;18.10;93.30;;;;;;4903706;29;20019;-74
2022/06/03 05:26:10;;;;;;;0.00;0.00;;;18.20;93.80;;;;;;4916564;29;20261;-73
2022/06/03 05:28:39;;;;;;;0.00;0.00;;;18.20;93.40;;;;;;4917439;29;20338;-71
2022/06/03 05:31:40;;;;;;;0.00;0.00;;;18.20;93.50;;;;;;4908437;29;20251;-73
2022/06/03 05:34:12;;;;;;;0.00;0.00;;;18.30;93.50;;;;;;4923107;29;20880;-71
2022/06/03 05:36:54;;;;;;;0.00;0.00;;;18.30;93.50;;;;;;4924939;29;20034;-75
2022/06/03 05:39:57;;;;;;;0.00;0.00;;;18.40;93.70;;;;;;4923485;29;20036;-76
2022/06/03 05:42:44;;;;;;;0.00;0.00;;;18.40;93.50;;;;;;4924516;29;20051;-75
2022/06/03 05:45:31;;;;;;;0.00;0.00;;;18.50;93.00;;;;;;4924864;29;20040;-72
2022/06/03 05:48:15;;;;;;;0.00;0.00;;;18.60;91.90;;;;;;4920002;29;20032;-71
2022/06/03 05:51:00;;;;;;;0.00;0.00;;;18.60;91.40;;;;;;4908009;29;20081;-72
2022/06/03 05:53:44;;;;;;;0.00;0.00;;;18.70;90.60;;;;;;4908572;29;20032;-74
2022/06/03 05:56:31;;;;;;;0.00;0.00;;;18.70;90.40;;;;;;4924802;29;20032;-72
2022/06/03 05:59:19;;;;;;;0.00;0.00;;;18.80;88.80;;;;;;4927764;29;20540;-72
2022/06/03 06:02:02;;;;;;;0.00;0.00;;;18.80;90.20;;;;;;4926033;29;20058;-73
2022/06/03 06:04:49;;;;;;;0.00;0.00;;;18.90;87.90;;;;;;4923912;29;20063;-77
2022/06/03 06:07:27;;;;;;;0.00;0.00;;;19.00;85.90;;;;;;4921573;29;20027;-73
2022/06/03 06:10:14;;;;;;;0.00;0.00;;;19.20;86.20;;;;;;4908751;29;20057;-73
2022/06/03 06:12:53;;;;;;;0.00;0.00;;;19.50;84.00;;;;;;4915510;29;20028;-72
2022/06/03 06:15:57;;;;;;;0.00;0.00;;;20.00;82.50;;;;;;4909054;29;20069;-72
2022/06/03 06:18:44;;;;;;;0.00;0.00;;;20.50;83.50;;;;;;4918665;29;20115;-71
2022/06/03 06:21:15;;;;;;;0.00;0.00;;;21.20;82.80;;;;;;4917295;29;20268;-72
2022/06/03 06:24:10;;;;;;;0.00;0.00;;;22.00;81.30;;;;;;4920100;29;20055;-74
2022/06/03 06:26:52;;;;;;;0.00;0.00;;;22.70;78.70;;;;;;4886903;29;20326;-73
2022/06/03 06:29:52;;;;;;;0.00;0.00;;;23.30;77.80;;;;;;4905551;29;20087;-75
2022/06/03 06:32:50;;;;;;;0.00;0.00;;;23.80;75.80;;;;;;4904453;29;20143;-77
2022/06/03 06:35:59;;;;;;;0.00;0.00;;;24.20;75.20;;;;;;4924169;29;20102;-72
2022/06/03 06:38:45;;;;;;;0.00;0.00;;;24.60;74.10;;;;;;4916778;29;20122;-72
2022/06/03 06:41:28;;;;;;;0.00;0.00;;;24.90;74.90;;;;;;4917455;29;20112;-72
2022/06/03 06:44:08;;;;;;;0.00;0.00;;;25.00;70.80;;;;;;4906407;29;20031;-74
2022/06/03 06:46:40;;;;;;;0.00;0.00;;;25.30;70.50;;;;;;4904125;29;20023;-71
2022/06/03 06:49:26;;;;;;;0.00;0.00;;;25.40;70.60;;;;;;4922064;29;20115;-73
2022/06/03 06:52:08;;;;;;;0.00;0.00;;;25.70;71.50;;;;;;4920069;29;20027;-72
2022/06/03 06:55:01;;;;;;;0.00;0.00;;;25.90;71.10;;;;;;4920204;29;20587;-73
2022/06/03 06:57:36;;;;;;;0.00;0.00;;;26.20;70.40;;;;;;4921679;29;20103;-72
2022/06/03 07:00:25;;;;;;;0.00;0.00;;;26.60;72.90;;;;;;4921514;29;20027;-71
2022/06/03 07:02:53;;;;;;;0.00;0.00;;;26.80;70.90;;;;;;4845039;29;20053;-72
2022/06/03 07:05:59;;;;;;;0.00;0.00;;;27.10;69.20;;;;;;4860465;29;20052;-75
2022/06/03 07:08:46;;;;;;;0.00;0.00;;;27.20;70.20;;;;;;4860603;29;20043;-71
2022/06/03 07:11:22;;;;;;;0.00;0.00;;;27.40;69.80;;;;;;4855709;29;20060;-73
2022/06/03 07:13:55;;;;;;;0.00;0.00;;;27.30;67.00;;;;;;4860720;29;20048;-76
2022/06/03 07:19:51;;;;;;;0.00;0.00;;;27.20;67.10;;;;;;4832155;29;20044;-73
2022/06/03 07:22:21;;;;;;;0.00;0.00;;;26.80;65.80;;;;;;4860995;29;20041;-72
2022/06/03 07:25:24;;;;;;;0.00;0.00;;;26.50;66.20;;;;;;4860497;29;20101;-73
2022/06/03 07:28:06;;;;;;;0.00;0.00;;;25.90;66.30;;;;;;4860313;29;20037;-77
2022/06/03 07:30:37;;;;;;;0.00;0.00;;;25.20;66.50;;;;;;4834906;29;20037;-72
2022/06/03 07:33:13;;;;;;;0.00;0.00;;;24.60;66.60;;;;;;4861217;29;20064;-73
2022/06/03 07:35:49;;;;;;;0.00;0.00;;;24.30;70.70;;;;;;4851363;29;20172;-76
2022/06/03 07:38:18;;;;;;;0.00;0.00;;;24.00;70.10;;;;;;4850854;29;20073;-74
2022/06/03 07:41:00;;;;;;;0.00;0.00;;;23.70;71.20;;;;;;4899112;29;20040;-75
2022/06/03 07:44:13;;;;;;;0.00;0.00;;;23.50;73.20;;;;;;4924602;29;20024;-74
2022/06/03 07:46:54;;;;;;;0.00;0.00;;;23.30;73.90;;;;;;4905793;29;20043;-76
2022/06/03 07:49:22;;;;;;;0.00;0.00;;;23.20;75.10;;;;;;4921237;29;20031;-78
2022/06/03 07:51:53;;;;;;;0.00;0.00;;;23.10;74.10;;;;;;4911477;29;20039;-77
2022/06/03 07:54:30;;;;;;;0.00;0.00;;;23.10;75.30;;;;;;4924843;29;20050;-76
2022/06/03 07:57:07;;;;;;;0.00;0.00;;;23.20;76.10;;;;;;4906945;29;20219;-72
2022/06/03 07:59:35;;;;;;;0.00;0.00;;;23.30;75.60;;;;;;4907395;29;20042;-73
2022/06/03 08:02:17;;;;;;;0.00;0.00;;;23.40;75.00;;;;;;4913541;29;20047;-73
2022/06/03 08:04:45;;;;;;;0.00;0.00;;;23.70;75.80;;;;;;4922996;28;20051;-73
2022/06/03 08:13:02;;;;;;;0.00;0.00;;;25.80;73.60;;;;;;4942723;28;20046;-73
2022/06/03 08:15:33;;;;;;;0.00;0.00;;;26.80;73.20;;;;;;4938059;28;20607;-78
2022/06/03 08:18:00;;;;;;;0.00;0.00;;;27.50;69.70;;;;;;4930249;28;20053;-79
2022/06/03 08:20:28;;;;;;;0.00;0.00;;;28.30;70.20;;;;;;4936428;28;20031;-73
2022/06/03 08:22:54;;;;;;;0.00;0.00;;;28.90;67.90;;;;;;4948915;28;20095;-74
2022/06/03 08:25:26;;;;;;;0.00;0.00;;;29.20;64.80;;;;;;4945636;28;20039;-78
2022/06/03 08:27:53;;;;;;;0.00;0.00;;;29.70;64.10;;;;;;4948148;28;20023;-74
2022/06/03 08:30:23;;;;;;;0.00;0.00;;;30.20;64.00;;;;;;4929494;28;20138;-75
2022/06/03 08:32:59;;;;;;;0.00;0.00;;;30.60;63.40;;;;;;4927541;28;20196;-75
2022/06/03 08:35:34;;;;;;;0.00;0.00;;;30.90;64.10;;;;;;4942476;28;20122;-74
2022/06/03 08:38:04;;;;;;;0.00;0.00;;;31.60;66.20;;;;;;4924237;28;20096;-75
2022/06/03 08:40:57;;;;;;;0.00;0.00;;;32.20;62.90;;;;;;4943108;28;20042;-74
2022/06/03 08:43:47;;;;;;;0.00;0.00;;;32.70;59.90;;;;;;4927191;28;20330;-79
2022/06/03 08:46:26;;;;;;;0.00;0.00;;;32.90;58.40;;;;;;4945849;28;20031;-77
2022/06/03 08:48:59;;;;;;;0.00;0.00;;;33.20;60.50;;;;;;4926799;28;20263;-75
2022/06/03 08:51:36;;;;;;;0.00;0.00;;;33.50;58.30;;;;;;4929358;28;20032;-75
2022/06/03 08:54:20;;;;;;;0.00;0.00;;;34.00;60.80;;;;;;4942142;28;20038;-75
2022/06/03 08:56:49;;;;;;;0.00;0.00;;;34.50;56.00;;;;;;4926638;28;20035;-77
2022/06/03 08:59:46;;;;;;;0.00;0.00;;;34.80;58.60;;;;;;4924579;28;20462;-74
2022/06/03 09:02:26;;;;;;;0.00;0.00;;;34.70;52.50;;;;;;4933459;29;20377;-73
2022/06/03 09:05:02;;;;;;;0.00;0.00;;;35.10;51.70;;;;;;4929048;29;20042;-76
2022/06/03 09:07:37;;;;;;;0.00;0.00;;;34.60;49.60;;;;;;4929981;29;20263;-79
2022/06/03 09:10:02;;;;;;;0.00;0.00;;;34.30;48.20;;;;;;4915226;29;20128;-76
2022/06/03 09:12:28;;;;;;;0.00;0.00;;;33.70;48.90;;;;;;4930480;29;20028;-79
2022/06/03 09:14:56;;;;;;;0.00;0.00;;;32.40;49.80;;;;;;4910070;29;20206;-76
2022/06/03 09:17:51;;;;;;;0.00;0.00;;;31.80;52.20;;;;;;4934610;29;20039;-75
2022/06/03 09:20:22;;;;;;;0.00;0.00;;;32.30;50.40;;;;;;4928999;29;20058;-77
2022/06/03 09:22:55;;;;;;;0.00;0.00;;;32.10;50.40;;;;;;4920094;29;20102;-78
2022/06/03 09:25:21;;;;;;;0.00;0.00;;;32.00;51.60;;;;;;4925838;29;20035;-75
2022/06/03 09:27:48;;;;;;;0.00;0.00;;;32.90;50.50;;;;;;4919898;29;20024;-75
2022/06/03 09:30:24;;;;;;;0.00;0.00;;;32.80;49.50;;;;;;4910824;29;20099;-76
2022/06/03 09:32:50;;;;;;;0.00;0.00;;;32.70;49.20;;;;;;4930062;29;20031;-75
2022/06/03 09:35:19;;;;;;;0.00;0.00;;;32.60;46.60;;;;;;4928868;29;20118;-73
2022/06/03 09:37:50;;;;;;;0.00;0.00;;;32.20;47.60;;;;;;4927442;29;20338;-74
2022/06/03 09:40:20;;;;;;;0.00;0.00;;;32.90;48.30;;;;;;4929280;29;20047;-74
2022/06/03 09:42:56;;;;;;;0.00;0.00;;;32.70;46.30;;;;;;4926175;29;20066;-75
2022/06/03 09:45:24;;;;;;;0.00;0.00;;;32.50;47.90;;;;;;4928798;29;20347;-74
2022/06/03 09:47:50;;;;;;;0.00;0.00;;;32.70;47.40;;;;;;4911679;29;20330;-74
2022/06/03 09:50:19;;;;;;;0.00;0.00;;;32.70;48.90;;;;;;4930241;29;20020;-74
2022/06/03 09:52:48;;;;;;;0.00;0.00;;;32.40;47.40;;;;;;4914146;29;20036;-73
2022/06/03 09:55:48;;;;;;;0.00;0.00;;;32.60;48.60;;;;;;4924255;29;20391;-75
2022/06/03 09:58:17;;;;;;;0.00;0.00;;;32.80;47.50;;;;;;4915295;29;20275;-74
2022/06/03 10:00:48;;;;;;;0.00;0.00;;;33.50;49.10;;;;;;4918825;29;20087;-80
2022/06/03 10:03:14;;;;;;;0.00;0.00;;;34.40;47.20;;;;;;4926590;29;20064;-74
2022/06/03 10:05:45;;;;;;;0.00;0.00;;;35.00;46.60;;;;;;4916971;29;20020;-74
2022/06/03 10:08:12;;;;;;;0.00;0.00;;;35.20;45.90;;;;;;4924187;29;20039;-72
2022/06/03 10:13:23;;;;;;;0.00;0.00;;;35.60;46.40;;;;;;4927439;29;20027;-73
2022/06/03 10:15:55;;;;;;;0.00;0.00;;;35.70;46.10;;;;;;4904701;29;20031;-76
2022/06/03 10:18:39;;;;;;;0.00;0.00;;;35.50;45.00;;;;;;4918016;29;20024;-75
2022/06/03 10:21:05;;;;;;;0.00;0.00;;;34.60;47.60;;;;;;4922694;29;20091;-76
2022/06/03 10:23:35;;;;;;;0.00;0.00;;;34.80;47.60;;;;;;4905418;29;20024;-78
2022/06/03 10:26:01;;;;;;;0.00;0.00;;;34.40;47.80;;;;;;4910525;29;20098;-73
2022/06/03 10:28:34;;;;;;;0.00;0.00;;;34.30;47.70;;;;;;4908664;29;20777;-74
2022/06/03 10:31:06;;;;;;;0.00;0.00;;;34.70;48.10;;;;;;4907173;29;20328;-74
2022/06/03 10:33:33;;;;;;;0.00;0.00;;;35.40;48.10;;;;;;4905641;29;20061;-75
2022/06/03 10:36:01;;;;;;;0.00;0.00;;;35.80;47.50;;;;;;4923535;29;20028;-81
2022/06/03 10:38:31;;;;;;;0.00;0.00;;;36.50;46.90;;;;;;4908525;29;20028;-76
2022/06/03 10:41:02;;;;;;;0.00;0.00;;;37.10;46.50;;;;;;4909781;29;20082;-74
2022/06/03 10:43:31;;;;;;;0.00;0.00;;;37.50;45.40;;;;;;4908830;29;20036;-77
2022/06/03 10:46:15;;;;;;;0.00;0.00;;;36.70;45.80;;;;;;4926848;29;20104;-75
2022/06/03 10:48:42;;;;;;;0.00;0.00;;;35.80;47.40;;;;;;4909629;29;20032;-77
2022/06/03 10:51:13;;;;;;;0.00;0.00;;;35.10;48.10;;;;;;4924740;29;20373;-81
2022/06/03 11:02:03;;;;;;;0.00;0.00;;;35.50;48.30;;;;;;4925814;29;20031;-72
2022/06/03 11:04:50;;;;;;;0.00;0.00;;;34.70;49.00;;;;;;4919982;29;20052;-77
2022/06/03 11:07:30;;;;;;;0.00;0.00;;;34.60;49.10;;;;;;4860565;29;20050;-75
2022/06/03 11:10:03;;;;;;;0.00;0.00;;;33.60;49.70;;;;;;4859943;29;20430;-73
2022/06/03 11:12:30;;;;;;;0.00;0.00;;;33.70;52.00;;;;;;4859151;29;20041;-77
2022/06/03 11:14:56;;;;;;;0.00;0.00;;;34.10;50.10;;;;;;4844374;29;20061;-74
2022/06/03 11:17:23;;;;;;;0.00;0.00;;;35.30;54.20;;;;;;4844300;29;20235;-74
2022/06/03 11:19:56;;;;;;;0.00;0.00;;;36.10;48.00;;;;;;4860078;29;20036;-80
2022/06/03 11:22:31;;;;;;;0.00;0.00;;;36.30;48.90;;;;;;4860671;29;20030;-77
2022/06/03 11:25:03;;;;;;;0.00;0.00;;;36.30;49.30;;;;;;4860238;29;20032;-74
2022/06/03 11:27:55;;;;;;;0.00;0.00;;;34.70;47.90;;;;;;4858853;29;20684;-79
2022/06/03 11:30:52;;;;;;;0.00;0.00;;;33.50;50.40;;;;;;4849958;29;20029;-77
2022/06/03 11:33:38;;;;;;;0.00;0.00;;;32.90;50.30;;;;;;4860314;29;20034;-78
2022/06/03 11:36:09;;;;;;;0.00;0.00;;;31.80;52.70;;;;;;4832434;29;20286;-75
2022/06/03 11:38:40;;;;;;;0.00;0.00;;;31.60;53.40;;;;;;4860340;29;20037;-74
2022/06/03 11:41:12;;;;;;;0.00;0.00;;;31.30;52.50;;;;;;4860747;29;20093;-73
2022/06/03 11:43:47;;;;;;;0.00;0.00;;;30.80;53.60;;;;;;4858802;29;20048;-73
2022/06/03 11:46:23;;;;;;;0.00;0.00;;;30.50;54.60;;;;;;4906135;29;20125;-75
2022/06/03 11:48:51;;;;;;;0.00;0.00;;;30.20;55.10;;;;;;4922247;29;20306;-77
2022/06/03 11:51:17;;;;;;;0.00;0.00;;;30.00;55.80;;;;;;4905980;29;20028;-75
2022/06/03 11:53:47;;;;;;;0.00;0.00;;;29.60;56.10;;;;;;4925181;29;20036;-75
2022/06/03 11:56:17;;;;;;;0.00;0.00;;;29.40;57.00;;;;;;4925497;29;20027;-75
2022/06/03 11:59:02;;;;;;;0.00;0.00;;;29.00;56.60;;;;;;4928313;29;20028;-77
2022/06/03 12:01:50;;;;;;;0.00;0.00;;;28.80;57.50;;;;;;4907952;29;20072;-75
2022/06/03 12:04:28;;;;;;;0.00;0.00;;;28.60;57.80;;;;;;4925076;29;20074;-76
2022/06/03 12:07:04;;;;;;;;;;;28.60;58.80;;;;;;4926385;29;20124;-74
2022/06/03 12:09:48;;;;;;;0.00;0.00;;;28.60;59.30;;;;;;4908982;29;19915;-71
2022/06/03 12:15:33;;;;;;;0.00;0.00;;;28.50;59.00;;;;;;4926181;29;20039;-72
2022/06/03 12:18:09;;;;;;;0.00;0.00;;;28.50;60.20;;;;;;4923000;29;20268;-76
2022/06/03 12:20:47;;;;;;;0.00;0.00;;;28.40;59.90;;;;;;4909878;29;20055;-73
2022/06/03 12:23:12;;;;;;;0.00;0.00;;;28.40;64.10;;;;;;4922282;29;20078;-76
2022/06/03 12:25:45;;;;;;;0.00;0.00;;;28.40;60.80;;;;;;4916961;29;20298;-77
2022/06/03 12:28:37;;;;;;;0.00;0.00;;;28.40;60.30;;;;;;4922845;29;20031;-74
2022/06/03 12:31:15;;;;;;;0.00;0.00;;;28.30;60.80;;;;;;4918774;29;20032;-71
2022/06/03 12:34:11;;;;;;;0.00;0.00;;;28.30;61.00;;;;;;4920316;29;20032;-73
2022/06/03 12:36:52;;;;;;;0.00;0.00;;;28.30;61.90;;;;;;4921735;29;20077;-72
2022/06/03 12:39:32;;;;;;;0.00;0.00;;;28.30;61.70;;;;;;4904414;29;20435;-75
2022/06/03 12:42:08;;;;;;;0.00;0.00;;;28.20;62.40;;;;;;4925689;29;20031;-75
2022/06/03 12:44:42;;;;;;;0.00;0.00;;;28.00;63.60;;;;;;4922687;29;20026;-73
2022/06/03 12:47:31;;;;;;;0.00;0.00;;;27.90;65.00;;;;;;4920268;29;20035;-75
2022/06/03 12:50:15;;;;;;;0.00;0.00;;;27.90;67.60;;;;;;4923561;29;20335;-75
2022/06/03 12:52:42;;;;;;;0.00;0.00;;;27.90;65.20;;;;;;4906087;29;20103;-73
2022/06/03 12:55:34;;;;;;;0.00;0.00;;;27.80;65.40;;;;;;4890689;29;20045;-75
2022/06/03 12:58:01;;;;;;;0.00;0.00;;;27.80;66.40;;;;;;4920932;29;20098;-71
2022/06/03 13:00:36;;;;;;;0.00;0.00;;;27.80;66.90;;;;;;4924279;29;20024;-72
2022/06/03 13:03:05;;;;;;;0.00;0.00;;;27.70;65.80;;;;;;4923800;29;20074;-72
2022/06/03 13:05:41;;;;;;;0.00;0.00;;;27.70;66.70;;;;;;4923174;29;20310;-71
2022/06/03 13:08:10;;;;;;;0.00;0.00;;;27.70;67.70;;;;;;4924504;29;20031;-71
2022/06/03 13:11:05;;;;;;;0.00;0.00;;;27.70;68.60;;;;;;4924513;29;20028;-71
2022/06/03 13:13:31;;;;;;;0.00;0.00;;;27.70;67.50;;;;;;4925589;29;20024;-72
2022/06/03 13:16:17;;;;;;;0.00;0.00;;;27.80;66.70;;;;;;4909269;29;20056;-72
2022/06/03 13:18:55;;;;;;;0.00;0.00;;;27.80;67.10;;;;;;4903501;29;20055;-71
2022/06/03 13:22:00;;;;;;;0.00;0.00;;;27.80;66.40;;;;;;4930982;29;20028;-70
2022/06/03 13:24:31;;;;;;;0.00;0.00;;;27.80;66.80;;;;;;4914905;29;20156;-71
2022/06/03 13:27:29;;;;;;;0.00;0.00;;;27.90;67.10;;;;;;4928073;29;20039;-71
2022/06/03 13:30:00;;;;;;;0.00;0.00;;;28.00;66.50;;;;;;4886429;29;20104;-72
2022/06/03 13:32:34;;;;;;;0.00;0.00;;;28.00;66.70;;;;;;4913262;29;20024;-72
2022/06/03 13:35:21;;;;;;;0.00;0.00;;;27.90;65.50;;;;;;4927198;29;20095;-72
2022/06/03 13:38:10;;;;;;;0.00;0.00;;;27.80;67.20;;;;;;4909144;29;20035;-71
2022/06/03 13:40:36;;;;;;;0.00;0.00;;;27.80;67.50;;;;;;4912565;29;20093;-72
2022/06/03 13:43:04;;;;;;;0.00;0.00;;;27.90;65.50;;;;;;4926634;29;20036;-71
2022/06/03 13:46:07;;;;;;;0.00;0.00;;;27.90;66.20;;;;;;4929172;29;20223;-73
2022/06/03 13:48:42;;;;;;;0.00;0.00;;;27.80;66.30;;;;;;4924517;29;20047;-72
2022/06/03 13:51:27;;;;;;;0.00;0.00;;;27.80;66.50;;;;;;4925300;29;20098;-75
2022/06/03 13:53:59;;;;;;;0.00;0.00;;;27.90;67.40;;;;;;4928658;29;20106;-72
2022/06/03 13:56:28;;;;;;;0.00;0.00;;;27.90;67.30;;;;;;4910463;29;20217;-72
2022/06/03 13:58:56;;;;;;;0.00;0.00;;;27.90;66.90;;;;;;4926786;29;20687;-72
2022/06/03 14:01:40;;;;;;;;;;;27.90;66.00;;;;;;4926437;29;20040;-72
2022/06/03 14:04:16;;;;;;;0.00;0.00;;;27.90;66.60;;;;;;4923644;28;20141;-71
2022/06/03 14:06:50;;;;;;;0.00;0.00;;;27.90;67.10;;;;;;4925737;29;20237;-71
2022/06/03 14:09:31;;;;;;;0.00;0.00;;;27.80;66.60;;;;;;4928824;28;20035;-72
2022/06/03 14:12:16;;;;;;;0.00;0.00;;;27.90;66.60;;;;;;4946106;28;20031;-71
2022/06/03 14:15:01;;;;;;;0.00;0.00;;;27.90;66.70;;;;;;4945422;28;20063;-71
2022/06/03 14:17:29;;;;;;;0.00;0.00;;;28.00;65.70;;;;;;4949639;28;20031;-71
2022/06/03 14:20:04;;;;;;;0.00;0.00;;;28.00;66.60;;;;;;4949475;28;20060;-71
2022/06/03 14:22:30;;;;;;;0.00;0.00;;;27.90;66.30;;;;;;4942034;28;20207;-75
2022/06/03 14:25:02;;;;;;;0.00;0.00;;;27.90;65.70;;;;;;4946688;28;20069;-71
2022/06/03 14:27:40;;;;;;;0.00;0.00;;;27.90;65.50;;;;;;4926401;28;20141;-76